createdAt,value
2023-03-12T00:04:58.394Z,97615.23
2023-03-12T00:08:10.260Z,97616.07
2023-03-12T00:11:22.173Z,97612.70
2023-03-12T00:14:26.292Z,97616.21
2023-03-12T00:17:43.207Z,97623.30
2023-03-12T00:21:02.313Z,97627.60
2023-03-12T00:24:12.568Z,97638.27
2023-03-12T00:27:22.463Z,97640.06
2023-03-12T00:30:23.144Z,97640.66
2023-03-12T00:33:25.558Z,97639.29
2023-03-12T00:36:34.642Z,97637.86
2023-03-12T00:39:48.892Z,97642.67
2023-03-12T00:42:59.719Z,97643.02
2023-03-12T00:46:10.500Z,97646.88
2023-03-12T00:49:23.334Z,97645.55
2023-03-12T00:52:26.269Z,97646.71
2023-03-12T00:55:31.214Z,97652.52
2023-03-12T00:58:34.097Z,97656.54
2023-03-12T01:01:36.551Z,97660.09
2023-03-12T01:04:38.404Z,97664.96
2023-03-12T01:15:33.473Z,97673.91
2023-03-12T01:18:56.930Z,97672.77
2023-03-12T01:26:00.589Z,97673.20
2023-03-12T01:29:17.103Z,97677.42
2023-03-12T01:32:29.938Z,97678.90
2023-03-12T01:35:42.158Z,97682.23
2023-03-12T01:38:44.694Z,97675.16
2023-03-12T01:41:55.630Z,97670.56
2023-03-12T01:45:16.519Z,97672.00
2023-03-12T01:48:30.429Z,97671.04
2023-03-12T01:51:33.944Z,97672.41
2023-03-12T01:54:37.784Z,97673.89
2023-03-12T01:58:03.534Z,97677.94
2023-03-12T02:01:12.538Z,97678.79
2023-03-12T02:04:28.555Z,97678.95
2023-03-12T02:07:25.912Z,97687.23
2023-03-12T02:10:36.729Z,97687.60
2023-03-12T02:13:42.631Z,97692.19
2023-03-12T02:16:53.415Z,97693.29
2023-03-12T02:19:59.382Z,97700.66
2023-03-12T02:23:19.581Z,97705.91
2023-03-12T02:26:30.475Z,97707.80
2023-03-12T02:30:00.114Z,97710.73
2023-03-12T02:33:12.016Z,97716.40
2023-03-12T02:36:14.525Z,97714.59
2023-03-12T02:39:18.477Z,97721.52
2023-03-12T02:42:16.956Z,97721.21
2023-03-12T02:45:46.491Z,97717.56
2023-03-12T02:48:55.403Z,97726.21
2023-03-12T02:52:06.632Z,97731.48
2023-03-12T02:55:17.403Z,97732.17
2023-03-12T02:58:27.314Z,97731.64
2023-03-12T03:01:17.804Z,97743.23
2023-03-12T03:04:37.159Z,97743.04
2023-03-12T03:07:48.980Z,97746.52
2023-03-12T03:11:09.349Z,97749.62
2023-03-12T03:14:21.201Z,97754.14
2023-03-12T03:17:33.040Z,97762.15
2023-03-12T03:20:43.870Z,97759.77
2023-03-12T03:23:55.631Z,97768.04
2023-03-12T03:30:42.364Z,97775.20
2023-03-12T03:33:55.163Z,97783.48
2023-03-12T03:37:04.191Z,97780.16
2023-03-12T03:40:16.106Z,97788.96
2023-03-12T03:43:28.013Z,97794.70
2023-03-12T03:46:38.514Z,97798.86
2023-03-12T03:49:50.396Z,97800.20
2023-03-12T03:53:03.355Z,97801.73
2023-03-12T03:56:14.561Z,97799.65
2023-03-12T03:59:28.618Z,97806.90
2023-03-12T04:02:40.687Z,97815.19
2023-03-12T04:05:59.288Z,97816.48
2023-03-12T04:20:20.803Z,97832.86
2023-03-12T04:23:38.102Z,97832.66
2023-03-12T04:26:49.957Z,97829.02
2023-03-12T04:33:10.081Z,97827.02
2023-03-12T04:36:22.899Z,97831.82
2023-03-12T04:39:51.486Z,97828.37
2023-03-12T04:46:43.094Z,97833.35
2023-03-12T04:49:57.103Z,97830.80
2023-03-12T04:53:00.739Z,97829.57
2023-03-12T04:56:19.994Z,97833.19
2023-03-12T04:59:40.128Z,97829.99
2023-03-12T05:02:47.096Z,97831.82
2023-03-12T05:05:49.676Z,97833.05
2023-03-12T05:09:01.596Z,97837.00
2023-03-12T05:12:25.101Z,97838.11
2023-03-12T05:15:35.882Z,97836.58
2023-03-12T05:18:46.887Z,97839.02
2023-03-12T05:21:57.680Z,97839.77
2023-03-12T05:25:17.118Z,97844.64
2023-03-12T05:28:27.963Z,97853.93
2023-03-12T05:31:38.812Z,97855.41
2023-03-12T05:34:40.846Z,97855.76
2023-03-12T05:38:02.466Z,97856.32
2023-03-12T05:41:17.292Z,97860.86
2023-03-12T05:44:37.548Z,97864.95
2023-03-12T05:47:51.301Z,97867.66
2023-03-12T05:51:21.188Z,97870.63
2023-03-12T05:54:15.087Z,97872.42
2023-03-12T05:57:17.054Z,97883.87
2023-03-12T06:00:38.290Z,97884.89
2023-03-12T06:04:08.932Z,97885.23
2023-03-12T06:07:21.638Z,97900.91
2023-03-12T06:14:19.715Z,97908.73
2023-03-12T06:17:36.603Z,97908.23
2023-03-12T06:20:53.980Z,97910.39
2023-03-12T06:24:04.795Z,97917.91
2023-03-12T06:30:50.689Z,97915.27
2023-03-12T06:34:01.595Z,97921.13
2023-03-12T06:37:10.505Z,97924.09
2023-03-12T06:40:21.377Z,97920.13
2023-03-12T06:43:50.065Z,97924.39
2023-03-12T06:47:10.160Z,97926.34
2023-03-12T06:50:15.795Z,97926.50
2023-03-12T06:53:27.696Z,97932.36
2023-03-12T06:56:38.522Z,97932.95
2023-03-12T06:59:51.298Z,97937.15
2023-03-12T07:03:11.514Z,97942.97
2023-03-12T07:06:24.289Z,97943.92
2023-03-12T07:09:37.596Z,97951.75
2023-03-12T07:12:56.788Z,97948.13
2023-03-12T07:16:07.829Z,97940.75
2023-03-12T07:19:18.655Z,97941.43
2023-03-12T07:22:29.570Z,97950.50
2023-03-12T07:25:40.637Z,97953.27
2023-03-12T07:28:43.748Z,97954.14
2023-03-12T07:31:56.203Z,97957.58
2023-03-12T07:35:09.132Z,97955.14
2023-03-12T07:38:19.283Z,97949.61
2023-03-12T07:41:26.512Z,97946.29
2023-03-12T07:44:48.940Z,97942.93
2023-03-12T07:48:11.237Z,97946.96
2023-03-12T07:51:24.101Z,97947.10
2023-03-12T07:54:27.173Z,97948.25
2023-03-12T07:57:46.868Z,97945.90
2023-03-12T08:00:58.982Z,97945.98
2023-03-12T08:04:09.961Z,97943.34
2023-03-12T08:07:17.089Z,97944.71
2023-03-12T08:10:24.175Z,97943.73
2023-03-12T08:13:44.357Z,97945.82
2023-03-12T08:16:58.325Z,97947.95
2023-03-12T08:20:17.243Z,97951.54
2023-03-12T08:23:29.201Z,97946.84
2023-03-12T08:26:42.120Z,97951.64
2023-03-12T08:29:53.030Z,97955.78
2023-03-12T08:37:06.240Z,97958.83
2023-03-12T08:40:26.355Z,97955.54
2023-03-12T08:43:52.548Z,97954.55
2023-03-12T08:47:03.705Z,97952.73
2023-03-12T08:50:07.761Z,97955.21
2023-03-12T08:53:15.947Z,97955.67
2023-03-12T09:07:33.197Z,97971.34
2023-03-12T09:10:40.160Z,97968.55
2023-03-12T09:17:44.619Z,97977.10
2023-03-12T09:20:58.921Z,97971.27
2023-03-12T09:24:07.805Z,97970.17
2023-03-12T09:27:28.146Z,97970.59
2023-03-12T09:30:38.094Z,97968.58
2023-03-12T09:33:56.233Z,97966.02
2023-03-12T09:37:04.121Z,97969.34
2023-03-12T09:40:24.448Z,97965.75
2023-03-12T09:43:43.564Z,97963.91
2023-03-12T09:46:55.764Z,97964.45
2023-03-12T09:50:01.290Z,97963.23
2023-03-12T09:56:55.581Z,97976.15
2023-03-12T10:00:07.632Z,97978.58
2023-03-12T10:03:09.175Z,97979.25
2023-03-12T10:06:12.832Z,97973.03
2023-03-12T10:09:21.413Z,97973.45
2023-03-12T10:20:20.929Z,97964.96
2023-03-12T10:27:22.614Z,97963.20
2023-03-12T10:30:43.933Z,97957.59
2023-03-12T10:33:59.317Z,97962.79
2023-03-12T10:41:04.840Z,97957.23
2023-03-12T10:44:23.136Z,97954.09
2023-03-12T10:47:40.230Z,97956.66
2023-03-12T10:50:46.183Z,97962.39
2023-03-12T10:54:05.718Z,97960.39
2023-03-12T10:57:13.934Z,97959.71
2023-03-12T11:00:25.527Z,97957.85
2023-03-12T11:04:01.711Z,97962.64
2023-03-12T11:07:22.246Z,97963.88
2023-03-12T11:14:23.019Z,97969.05
2023-03-12T11:17:48.815Z,97967.27
2023-03-12T11:21:02.738Z,97967.16
2023-03-12T11:24:15.742Z,97968.95
2023-03-12T11:31:00.939Z,97968.77
2023-03-12T11:34:01.986Z,97974.30
2023-03-12T11:45:03.796Z,97971.61
2023-03-12T11:48:38.613Z,97978.20
2023-03-12T11:59:57.445Z,97982.88
2023-03-12T12:03:05.139Z,97984.47
2023-03-12T12:10:00.122Z,97979.05
2023-03-12T12:13:04.840Z,97975.41
2023-03-12T12:16:13.503Z,97983.87
2023-03-12T12:19:12.101Z,97970.56
2023-03-12T12:22:11.909Z,97977.51
2023-03-12T12:25:21.946Z,97973.70
2023-03-12T12:28:20.619Z,97978.05
2023-03-12T12:31:35.125Z,97974.30
2023-03-12T12:34:29.862Z,97975.25
2023-03-12T12:41:11.577Z,97972.20
2023-03-12T12:47:21.919Z,97976.73
2023-03-12T12:50:19.966Z,97972.25
2023-03-12T12:53:39.846Z,97977.54
2023-03-12T12:56:43.226Z,97978.19
2023-03-12T13:00:02.443Z,97990.19
2023-03-12T13:03:19.860Z,97985.20
2023-03-12T13:06:42.802Z,97979.13
2023-03-12T13:09:59.679Z,97989.15
2023-03-12T13:17:16.501Z,97994.52
2023-03-12T13:20:26.111Z,97990.45
2023-03-12T13:23:20.870Z,97995.16
2023-03-12T13:26:30.697Z,97994.11
2023-03-12T13:29:26.673Z,97995.45
2023-03-12T13:32:26.623Z,97988.69
2023-03-12T13:35:42.017Z,97992.30
2023-03-12T13:39:01.834Z,97988.98
2023-03-12T13:42:03.836Z,97987.07
2023-03-12T13:45:13.801Z,97987.26
2023-03-12T13:48:33.623Z,97994.85
2023-03-12T13:51:15.819Z,97996.75
2023-03-12T13:54:25.105Z,97997.18
2023-03-12T13:57:43.926Z,97995.91
2023-03-12T14:03:50.432Z,97993.55
2023-03-12T14:07:16.915Z,97991.32
2023-03-12T14:11:01.754Z,97988.78
2023-03-12T14:14:17.825Z,97984.44
2023-03-12T14:17:35.697Z,97987.23
2023-03-12T14:20:41.571Z,97986.05
2023-03-12T14:23:56.935Z,97993.89
2023-03-12T14:26:55.738Z,97994.73
2023-03-12T14:30:17.867Z,98000.66
2023-03-12T14:33:39.211Z,97997.17
2023-03-12T14:36:53.654Z,97999.71
2023-03-12T14:40:00.246Z,97997.39
2023-03-12T14:43:35.815Z,98000.35
2023-03-12T14:46:49.274Z,97998.50
2023-03-12T14:50:03.518Z,98000.98
2023-03-12T14:53:08.135Z,98000.46
2023-03-12T14:56:27.463Z,98003.19
2023-03-12T14:59:41.205Z,98005.23
2023-03-12T15:02:55.516Z,98008.46
2023-03-12T15:06:12.446Z,98012.79
2023-03-12T15:09:31.720Z,98016.02
2023-03-12T15:13:07.610Z,98014.20
2023-03-12T15:16:11.979Z,98015.05
2023-03-12T15:19:22.817Z,98017.37
2023-03-12T15:22:41.942Z,98017.14
2023-03-12T15:29:14.911Z,98023.05
2023-03-12T15:32:25.888Z,98028.40
2023-03-12T15:35:46.405Z,98029.23
2023-03-12T15:39:00.516Z,98032.83
2023-03-12T15:42:13.388Z,98027.63
2023-03-12T15:45:39.104Z,98026.08
2023-03-12T15:49:04.479Z,98021.02
2023-03-12T15:52:16.329Z,98020.97
2023-03-12T15:55:31.071Z,98021.73
2023-03-12T15:58:47.838Z,98028.83
2023-03-12T16:02:07.841Z,98030.69
2023-03-12T16:05:29.823Z,98035.75
2023-03-12T16:08:36.712Z,98030.46
2023-03-12T16:11:44.394Z,98029.59
2023-03-12T16:18:54.351Z,98026.89
2023-03-12T16:22:37.599Z,98032.35
2023-03-12T16:25:44.259Z,98032.90
2023-03-12T16:28:55.749Z,98039.90
2023-03-12T16:32:06.644Z,98037.91
2023-03-12T16:35:26.820Z,98038.42
2023-03-12T16:42:30.185Z,98045.66
2023-03-12T16:49:06.718Z,98040.58
2023-03-12T16:52:51.936Z,98044.91
2023-03-12T16:55:32.748Z,98042.33
2023-03-12T16:59:23.554Z,98040.93
2023-03-12T17:02:52.281Z,98043.76
2023-03-12T17:12:16.678Z,98051.92
2023-03-12T17:19:44.754Z,98065.33
2023-03-12T17:22:45.689Z,98072.89
2023-03-12T17:29:53.420Z,98071.11
2023-03-12T17:36:18.631Z,98083.89
2023-03-12T17:39:38.860Z,98077.83
2023-03-12T17:48:32.677Z,98059.27
2023-03-12T17:51:45.682Z,98050.32
2023-03-12T17:58:01.694Z,98049.81
2023-03-12T18:03:50.528Z,98049.69
2023-03-12T18:07:10.251Z,98048.38
2023-03-12T18:10:33.344Z,98049.86
2023-03-12T18:17:00.708Z,98050.81
2023-03-12T18:20:11.704Z,98047.64
2023-03-12T18:23:24.838Z,98048.20
2023-03-12T18:26:44.099Z,98055.04
2023-03-12T18:29:56.303Z,98051.87
2023-03-12T18:33:23.945Z,98038.88
2023-03-12T18:36:41.507Z,98040.45
2023-03-12T18:39:51.669Z,98043.86
2023-03-12T18:43:02.487Z,98043.85
2023-03-12T18:46:15.264Z,98037.44
2023-03-12T18:49:37.504Z,98039.09
2023-03-12T18:52:50.313Z,98034.52
2023-03-12T18:56:02.084Z,98032.40
2023-03-12T18:59:21.258Z,98033.85
2023-03-12T19:02:41.485Z,98041.71
2023-03-12T19:06:01.762Z,98046.85
2023-03-12T19:09:12.519Z,98047.44
2023-03-12T19:12:24.328Z,98053.73
2023-03-12T19:15:37.114Z,98054.65
2023-03-12T19:18:52.059Z,98054.20
2023-03-12T19:22:12.222Z,98056.35
2023-03-12T19:25:24.010Z,98058.70
2023-03-12T19:28:44.106Z,98051.02
2023-03-12T19:31:55.118Z,98056.17
2023-03-12T19:35:07.032Z,98048.46
2023-03-12T19:38:19.255Z,98044.65
2023-03-12T19:41:34.133Z,98048.04
2023-03-12T19:44:46.493Z,98047.28
2023-03-12T19:48:12.794Z,98055.25
2023-03-12T19:51:18.257Z,98054.70
2023-03-12T19:54:29.661Z,98054.41
2023-03-12T19:57:48.795Z,98052.21
2023-03-12T20:00:59.622Z,98052.77
2023-03-12T20:04:18.788Z,98053.79
2023-03-12T20:07:29.546Z,98052.55
2023-03-12T20:10:48.820Z,98047.15
2023-03-12T20:14:09.064Z,98048.78
2023-03-12T20:17:20.245Z,98048.64
2023-03-12T20:20:47.927Z,98053.86
2023-03-12T20:23:58.745Z,98044.60
2023-03-12T20:27:09.667Z,98045.19
2023-03-12T20:30:37.298Z,98043.14
2023-03-12T20:34:06.285Z,98046.06
2023-03-12T20:37:28.208Z,98035.95
2023-03-12T20:40:39.106Z,98032.14
2023-03-12T20:43:51.041Z,98025.81
2023-03-12T20:47:02.041Z,98027.13
2023-03-12T20:50:20.333Z,98024.84
2023-03-12T20:53:31.313Z,98024.30
2023-03-12T20:56:43.470Z,98016.70
2023-03-12T20:59:55.266Z,98009.89
2023-03-12T21:03:06.611Z,97998.29
2023-03-12T21:06:26.173Z,97988.84
2023-03-12T21:09:37.270Z,97986.48
2023-03-12T21:12:50.324Z,97983.05
2023-03-12T21:16:09.752Z,97977.23
2023-03-12T21:19:20.300Z,97964.80
2023-03-12T21:22:33.224Z,97953.98
2023-03-12T21:25:37.991Z,97950.76
2023-03-12T21:28:41.135Z,97951.46
2023-03-12T21:31:51.946Z,97945.23
2023-03-12T21:35:14.572Z,97944.04
2023-03-12T21:41:20.832Z,97946.76
2023-03-12T21:44:47.404Z,97945.84
2023-03-12T21:48:00.587Z,97933.31
2023-03-12T21:51:04.990Z,97928.36
2023-03-12T21:54:18.921Z,97930.56
2023-03-12T21:57:30.877Z,97922.70
2023-03-12T22:00:58.734Z,97919.34
2023-03-12T22:04:09.877Z,97924.04
2023-03-12T22:07:20.672Z,97921.96
2023-03-12T22:10:31.659Z,97921.66
2023-03-12T22:13:42.672Z,97927.54
2023-03-12T22:17:02.464Z,97918.13
2023-03-12T22:20:15.684Z,97912.63
2023-03-12T22:23:26.631Z,97910.18
2023-03-12T22:26:06.831Z,97904.10
2023-03-12T22:32:03.328Z,97909.89
2023-03-12T22:35:11.777Z,97908.12
2023-03-12T22:38:18.546Z,97894.46
2023-03-12T22:43:56.552Z,97879.90
2023-03-12T22:47:08.857Z,97871.39
2023-03-12T22:50:39.517Z,97877.73
2023-03-12T22:53:59.228Z,97891.30
2023-03-12T22:57:19.515Z,97892.00
2023-03-12T23:02:58.906Z,97891.65
2023-03-12T23:06:12.230Z,97888.45
2023-03-12T23:09:26.295Z,97886.83
2023-03-12T23:12:37.189Z,97884.79
2023-03-12T23:15:46.139Z,97891.45
2023-03-12T23:18:57.179Z,97888.93
2023-03-12T23:21:59.679Z,97891.04
2023-03-12T23:25:10.502Z,97892.09
2023-03-12T23:28:30.664Z,97883.52
2023-03-12T23:31:26.595Z,97862.23
2023-03-12T23:34:53.637Z,97868.54
2023-03-12T23:38:12.058Z,97878.65
2023-03-12T23:41:31.236Z,97892.52
2023-03-12T23:44:41.093Z,97897.59
2023-03-12T23:47:20.487Z,97897.30
2023-03-12T23:52:45.836Z,97878.95
2023-03-12T23:56:24.156Z,97868.02
2023-03-12T23:59:43.387Z,97868.05
